sensor_id;sensor_type;location;lat;lon;timestamp;pressure;altitude;pressure_sealevel;temperature;humidity
59545;BME280;45368;55.002;-1.592;2023-04-01T00:00:23;99478.67;;;4.99;70.22
59545;BME280;45368;55.002;-1.592;2023-04-01T00:02:51;99484.22;;;3.98;73.94
59545;BME280;45368;55.002;-1.592;2023-04-01T00:05:18;99485.59;;;4.55;72.26
59545;BME280;45368;55.002;-1.592;2023-04-01T00:07:46;99484.91;;;5.97;68.33
59545;BME280;45368;55.002;-1.592;2023-04-01T00:10:14;99487.45;;;5.56;68.68
59545;BME280;45368;55.002;-1.592;2023-04-01T00:12:41;99490.29;;;5.01;70.04
59545;BME280;45368;55.002;-1.592;2023-04-01T00:15:11;99484.81;;;6.04;67.86
59545;BME280;45368;55.002;-1.592;2023-04-01T00:17:38;99488.00;;;6.15;66.74
59545;BME280;45368;55.002;-1.592;2023-04-01T00:20:07;99489.14;;;6.16;66.51
59545;BME280;45368;55.002;-1.592;2023-04-01T00:22:35;99493.81;;;5.12;68.76
59545;BME280;45368;55.002;-1.592;2023-04-01T00:25:03;99498.78;;;4.06;72.83
59545;BME280;45368;55.002;-1.592;2023-04-01T00:27:31;99498.99;;;5.05;70.73
59545;BME280;45368;55.002;-1.592;2023-04-01T00:29:58;99503.70;;;5.24;71.17
59545;BME280;45368;55.002;-1.592;2023-04-01T00:32:25;99508.44;;;4.42;72.92
59545;BME280;45368;55.002;-1.592;2023-04-01T00:34:52;99507.15;;;4.55;72.29
59545;BME280;45368;55.002;-1.592;2023-04-01T00:37:20;99507.36;;;4.89;70.93
59545;BME280;45368;55.002;-1.592;2023-04-01T00:39:47;99508.05;;;4.01;73.15
59545;BME280;45368;55.002;-1.592;2023-04-01T00:42:15;99510.02;;;4.93;71.06
59545;BME280;45368;55.002;-1.592;2023-04-01T00:44:45;99509.92;;;4.83;70.88
59545;BME280;45368;55.002;-1.592;2023-04-01T00:47:15;99511.20;;;4.59;71.55
59545;BME280;45368;55.002;-1.592;2023-04-01T00:49:46;99510.08;;;5.38;69.52
59545;BME280;45368;55.002;-1.592;2023-04-01T00:52:17;99506.12;;;6.39;66.89
59545;BME280;45368;55.002;-1.592;2023-04-01T00:54:47;99508.10;;;7.23;64.46
59545;BME280;45368;55.002;-1.592;2023-04-01T00:57:20;99507.58;;;7.14;63.53
59545;BME280;45368;55.002;-1.592;2023-04-01T00:59:51;99506.62;;;7.54;62.43
59545;BME280;45368;55.002;-1.592;2023-04-01T01:02:19;99515.93;;;6.30;64.89
59545;BME280;45368;55.002;-1.592;2023-04-01T01:04:47;99515.84;;;6.79;63.67
59545;BME280;45368;55.002;-1.592;2023-04-01T01:07:23;99518.28;;;6.36;65.31
59545;BME280;45368;55.002;-1.592;2023-04-01T01:09:59;99513.79;;;6.36;66.16
59545;BME280;45368;55.002;-1.592;2023-04-01T01:12:34;99514.17;;;6.25;65.41
59545;BME280;45368;55.002;-1.592;2023-04-01T01:15:10;99515.31;;;6.94;64.05
59545;BME280;45368;55.002;-1.592;2023-04-01T01:17:47;99517.79;;;6.29;64.90
59545;BME280;45368;55.002;-1.592;2023-04-01T01:20:46;99523.33;;;5.38;68.32
59545;BME280;45368;55.002;-1.592;2023-04-01T01:23:43;99519.57;;;5.73;67.16
59545;BME280;45368;55.002;-1.592;2023-04-01T01:26:34;99525.65;;;5.41;68.89
59545;BME280;45368;55.002;-1.592;2023-04-01T01:29:12;99524.57;;;4.92;70.21
59545;BME280;45368;55.002;-1.592;2023-04-01T01:31:47;99525.12;;;4.75;69.94
59545;BME280;45368;55.002;-1.592;2023-04-01T01:34:22;99525.88;;;5.48;67.75
59545;BME280;45368;55.002;-1.592;2023-04-01T01:36:56;99524.77;;;6.09;66.41
59545;BME280;45368;55.002;-1.592;2023-04-01T01:39:30;99528.19;;;5.11;67.73
59545;BME280;45368;55.002;-1.592;2023-04-01T01:42:01;99533.01;;;5.88;66.38
59545;BME280;45368;55.002;-1.592;2023-04-01T01:44:30;99530.04;;;6.64;64.38
59545;BME280;45368;55.002;-1.592;2023-04-01T01:47:01;99536.49;;;7.18;63.81
59545;BME280;45368;55.002;-1.592;2023-04-01T01:49:29;99537.07;;;7.16;63.36
59545;BME280;45368;55.002;-1.592;2023-04-01T01:51:58;99540.25;;;7.10;63.82
59545;BME280;45368;55.002;-1.592;2023-04-01T01:54:25;99539.99;;;7.09;64.11
59545;BME280;45368;55.002;-1.592;2023-04-01T01:57:06;99539.94;;;6.72;63.83
59545;BME280;45368;55.002;-1.592;2023-04-01T01:59:36;99543.20;;;7.07;63.93
59545;BME280;45368;55.002;-1.592;2023-04-01T02:02:05;99550.77;;;6.04;64.95
59545;BME280;45368;55.002;-1.592;2023-04-01T02:04:35;99558.20;;;6.52;65.33
59545;BME280;45368;55.002;-1.592;2023-04-01T02:07:08;99561.89;;;5.38;67.67
59545;BME280;45368;55.002;-1.592;2023-04-01T02:09:39;99565.67;;;5.03;68.55
59545;BME280;45368;55.002;-1.592;2023-04-01T02:12:09;99567.15;;;5.11;69.12
59545;BME280;45368;55.002;-1.592;2023-04-01T02:14:41;99570.52;;;5.31;68.24
59545;BME280;45368;55.002;-1.592;2023-04-01T02:17:12;99574.51;;;4.94;69.97
59545;BME280;45368;55.002;-1.592;2023-04-01T02:19:46;99577.27;;;5.67;67.67
59545;BME280;45368;55.002;-1.592;2023-04-01T02:22:19;99576.32;;;5.74;66.73
59545;BME280;45368;55.002;-1.592;2023-04-01T02:24:49;99577.79;;;6.52;65.29
59545;BME280;45368;55.002;-1.592;2023-04-01T02:27:18;99582.19;;;5.95;66.28
59545;BME280;45368;55.002;-1.592;2023-04-01T02:29:46;99584.12;;;6.13;66.12
59545;BME280;45368;55.002;-1.592;2023-04-01T02:32:14;99584.36;;;6.31;65.62
59545;BME280;45368;55.002;-1.592;2023-04-01T02:34:43;99585.50;;;6.31;65.07
59545;BME280;45368;55.002;-1.592;2023-04-01T02:37:12;99585.68;;;6.95;63.11
59545;BME280;45368;55.002;-1.592;2023-04-01T02:39:40;99591.09;;;6.36;64.82
59545;BME280;45368;55.002;-1.592;2023-04-01T02:42:08;99598.16;;;6.49;65.63
59545;BME280;45368;55.002;-1.592;2023-04-01T02:44:35;99602.14;;;5.51;67.51
59545;BME280;45368;55.002;-1.592;2023-04-01T02:47:03;99600.23;;;4.90;70.31
59545;BME280;45368;55.002;-1.592;2023-04-01T02:49:30;99599.73;;;5.35;68.30
59545;BME280;45368;55.002;-1.592;2023-04-01T02:51:57;99597.85;;;5.18;68.55
59545;BME280;45368;55.002;-1.592;2023-04-01T02:54:24;99595.63;;;6.35;65.70
59545;BME280;45368;55.002;-1.592;2023-04-01T02:56:51;99597.76;;;6.74;63.89
59545;BME280;45368;55.002;-1.592;2023-04-01T02:59:18;99600.18;;;6.86;63.68
59545;BME280;45368;55.002;-1.592;2023-04-01T03:01:45;99603.98;;;6.19;64.47
59545;BME280;45368;55.002;-1.592;2023-04-01T03:04:12;99605.72;;;6.81;63.81
59545;BME280;45368;55.002;-1.592;2023-04-01T03:06:39;99611.22;;;5.74;65.50
59545;BME280;45368;55.002;-1.592;2023-04-01T03:09:06;99608.37;;;6.15;64.44
59545;BME280;45368;55.002;-1.592;2023-04-01T03:11:33;99613.23;;;5.88;64.38
59545;BME280;45368;55.002;-1.592;2023-04-01T03:14:00;99613.23;;;6.41;64.88
59545;BME280;45368;55.002;-1.592;2023-04-01T03:16:27;99614.21;;;6.30;64.53
59545;BME280;45368;55.002;-1.592;2023-04-01T03:18:54;99618.03;;;5.72;65.44
59545;BME280;45368;55.002;-1.592;2023-04-01T03:21:23;99621.45;;;5.67;65.32
59545;BME280;45368;55.002;-1.592;2023-04-01T03:23:51;99622.38;;;6.08;65.05
59545;BME280;45368;55.002;-1.592;2023-04-01T03:26:18;99621.60;;;5.10;67.16
59545;BME280;45368;55.002;-1.592;2023-04-01T03:28:45;99624.65;;;4.91;67.40
59545;BME280;45368;55.002;-1.592;2023-04-01T03:31:12;99623.80;;;6.22;65.12
59545;BME280;45368;55.002;-1.592;2023-04-01T03:33:40;99623.16;;;6.27;64.69
59545;BME280;45368;55.002;-1.592;2023-04-01T03:36:08;99630.20;;;6.29;63.76
59545;BME280;45368;55.002;-1.592;2023-04-01T03:38:36;99630.44;;;6.94;62.90
59545;BME280;45368;55.002;-1.592;2023-04-01T03:41:04;99632.93;;;5.10;67.48
59545;BME280;45368;55.002;-1.592;2023-04-01T03:43:32;99635.34;;;5.79;66.97
59545;BME280;45368;55.002;-1.592;2023-04-01T03:45:59;99634.23;;;6.48;64.95
59545;BME280;45368;55.002;-1.592;2023-04-01T03:48:26;99636.53;;;6.27;64.38
59545;BME280;45368;55.002;-1.592;2023-04-01T03:50:53;99640.63;;;6.18;65.19
59545;BME280;45368;55.002;-1.592;2023-04-01T03:53:20;99639.70;;;6.04;64.48
59545;BME280;45368;55.002;-1.592;2023-04-01T03:55:47;99647.49;;;6.39;64.69
59545;BME280;45368;55.002;-1.592;2023-04-01T03:58:14;99647.07;;;6.61;63.54
59545;BME280;45368;55.002;-1.592;2023-04-01T04:00:41;99644.35;;;7.56;61.36
59545;BME280;45368;55.002;-1.592;2023-04-01T04:03:08;99652.66;;;6.36;62.85
59545;BME280;45368;55.002;-1.592;2023-04-01T04:05:35;99654.17;;;6.94;62.04
59545;BME280;45368;55.002;-1.592;2023-04-01T04:08:03;99656.93;;;7.14;62.14
59545;BME280;45368;55.002;-1.592;2023-04-01T04:10:30;99661.93;;;6.22;63.62
59545;BME280;45368;55.002;-1.592;2023-04-01T04:12:57;99665.18;;;5.87;65.11
59545;BME280;45368;55.002;-1.592;2023-04-01T04:15:24;99666.16;;;6.21;64.33
59545;BME280;45368;55.002;-1.592;2023-04-01T04:17:52;99666.73;;;5.90;64.00
59545;BME280;45368;55.002;-1.592;2023-04-01T04:20:20;99668.80;;;6.99;62.87
59545;BME280;45368;55.002;-1.592;2023-04-01T04:22:46;99673.25;;;7.11;62.19
59545;BME280;45368;55.002;-1.592;2023-04-01T04:25:14;99675.11;;;6.99;62.39
59545;BME280;45368;55.002;-1.592;2023-04-01T04:27:43;99675.31;;;6.97;61.57
59545;BME280;45368;55.002;-1.592;2023-04-01T04:30:11;99677.79;;;6.98;60.94
59545;BME280;45368;55.002;-1.592;2023-04-01T04:32:38;99687.46;;;5.92;63.69
59545;BME280;45368;55.002;-1.592;2023-04-01T04:35:06;99687.95;;;7.09;60.98
59545;BME280;45368;55.002;-1.592;2023-04-01T04:37:33;99689.33;;;7.31;60.24
59545;BME280;45368;55.002;-1.592;2023-04-01T04:40:01;99692.93;;;5.72;64.04
59545;BME280;45368;55.002;-1.592;2023-04-01T04:42:28;99696.12;;;5.60;65.26
59545;BME280;45368;55.002;-1.592;2023-04-01T04:44:55;99695.05;;;5.94;64.04
59545;BME280;45368;55.002;-1.592;2023-04-01T04:47:22;99695.81;;;5.82;64.21
59545;BME280;45368;55.002;-1.592;2023-04-01T04:49:50;99693.04;;;6.07;64.42
59545;BME280;45368;55.002;-1.592;2023-04-01T04:52:17;99697.07;;;6.76;62.82
59545;BME280;45368;55.002;-1.592;2023-04-01T04:54:44;99695.59;;;6.31;63.34
59545;BME280;45368;55.002;-1.592;2023-04-01T04:57:11;99699.69;;;6.95;61.52
59545;BME280;45368;55.002;-1.592;2023-04-01T04:59:38;99701.80;;;7.31;60.77
59545;BME280;45368;55.002;-1.592;2023-04-01T05:02:04;99707.04;;;6.99;61.31
59545;BME280;45368;55.002;-1.592;2023-04-01T05:04:37;99709.27;;;7.27;60.58
59545;BME280;45368;55.002;-1.592;2023-04-01T05:07:04;99715.19;;;6.73;61.06
59545;BME280;45368;55.002;-1.592;2023-04-01T05:09:31;99713.86;;;5.92;64.02
59545;BME280;45368;55.002;-1.592;2023-04-01T05:11:59;99721.20;;;5.63;65.74
59545;BME280;45368;55.002;-1.592;2023-04-01T05:14:26;99719.05;;;5.85;64.91
59545;BME280;45368;55.002;-1.592;2023-04-01T05:16:53;99727.33;;;4.75;68.23
59545;BME280;45368;55.002;-1.592;2023-04-01T05:19:23;99732.70;;;3.87;71.37
59545;BME280;45368;55.002;-1.592;2023-04-01T05:21:51;99734.27;;;4.88;69.28
59545;BME280;45368;55.002;-1.592;2023-04-01T05:24:17;99738.58;;;4.95;69.69
59545;BME280;45368;55.002;-1.592;2023-04-01T05:26:44;99743.31;;;4.87;69.74
59545;BME280;45368;55.002;-1.592;2023-04-01T05:29:11;99742.15;;;5.17;68.78
59545;BME280;45368;55.002;-1.592;2023-04-01T05:31:39;99750.40;;;4.79;69.70
59545;BME280;45368;55.002;-1.592;2023-04-01T05:34:07;99749.07;;;4.86;69.71
59545;BME280;45368;55.002;-1.592;2023-04-01T05:36:34;99748.04;;;5.67;67.90
59545;BME280;45368;55.002;-1.592;2023-04-01T05:39:01;99753.23;;;5.21;67.06
59545;BME280;45368;55.002;-1.592;2023-04-01T05:41:29;99754.28;;;6.15;65.23
59545;BME280;45368;55.002;-1.592;2023-04-01T05:43:56;99759.84;;;5.03;68.51
59545;BME280;45368;55.002;-1.592;2023-04-01T05:46:23;99759.11;;;5.92;66.44
59545;BME280;45368;55.002;-1.592;2023-04-01T05:48:50;99766.07;;;5.40;67.43
59545;BME280;45368;55.002;-1.592;2023-04-01T05:51:16;99771.26;;;4.79;69.58
59545;BME280;45368;55.002;-1.592;2023-04-01T05:53:44;99769.61;;;5.53;67.60
59545;BME280;45368;55.002;-1.592;2023-04-01T05:56:11;99770.91;;;5.88;66.78
59545;BME280;45368;55.002;-1.592;2023-04-01T05:58:38;99772.66;;;6.19;65.66
59545;BME280;45368;55.002;-1.592;2023-04-01T06:01:07;99777.95;;;5.68;65.84
59545;BME280;45368;55.002;-1.592;2023-04-01T06:03:35;99782.41;;;5.24;67.75
59545;BME280;45368;55.002;-1.592;2023-04-01T06:06:03;99783.14;;;5.40;67.40
59545;BME280;45368;55.002;-1.592;2023-04-01T06:08:31;99782.84;;;4.85;68.30
59545;BME280;45368;55.002;-1.592;2023-04-01T06:11:10;99786.34;;;6.60;65.83
59545;BME280;45368;55.002;-1.592;2023-04-01T06:13:52;99788.91;;;6.23;65.56
59545;BME280;45368;55.002;-1.592;2023-04-01T06:16:31;99790.59;;;6.88;63.14
59545;BME280;45368;55.002;-1.592;2023-04-01T06:19:13;99794.23;;;6.73;63.52
59545;BME280;45368;55.002;-1.592;2023-04-01T06:22:21;99798.40;;;6.27;64.91
59545;BME280;45368;55.002;-1.592;2023-04-01T06:25:12;99802.72;;;5.11;67.07
59545;BME280;45368;55.002;-1.592;2023-04-01T06:27:54;99800.02;;;6.48;64.51
59545;BME280;45368;55.002;-1.592;2023-04-01T06:30:33;99799.90;;;6.01;64.42
59545;BME280;45368;55.002;-1.592;2023-04-01T06:33:13;99802.09;;;6.17;63.63
59545;BME280;45368;55.002;-1.592;2023-04-01T06:35:55;99812.34;;;4.45;68.51
59545;BME280;45368;55.002;-1.592;2023-04-01T06:38:39;99808.30;;;5.77;65.75
59545;BME280;45368;55.002;-1.592;2023-04-01T06:41:51;99815.71;;;5.34;66.29
59545;BME280;45368;55.002;-1.592;2023-04-01T06:44:32;99817.07;;;6.25;64.47
59545;BME280;45368;55.002;-1.592;2023-04-01T06:47:16;99820.78;;;5.96;65.32
59545;BME280;45368;55.002;-1.592;2023-04-01T06:49:55;99829.03;;;5.52;67.49
59545;BME280;45368;55.002;-1.592;2023-04-01T06:52:28;99828.92;;;5.45;66.43
59545;BME280;45368;55.002;-1.592;2023-04-01T06:55:04;99829.99;;;6.02;65.36
59545;BME280;45368;55.002;-1.592;2023-04-01T06:57:44;99844.41;;;4.85;68.88
59545;BME280;45368;55.002;-1.592;2023-04-01T07:00:15;99843.01;;;5.30;67.97
59545;BME280;45368;55.002;-1.592;2023-04-01T07:02:49;99843.12;;;5.42;67.37
59545;BME280;45368;55.002;-1.592;2023-04-01T07:05:23;99849.91;;;5.45;66.99
59545;BME280;45368;55.002;-1.592;2023-04-01T07:07:53;99854.17;;;5.75;66.31
59545;BME280;45368;55.002;-1.592;2023-04-01T07:10:25;99858.31;;;5.73;65.98
59545;BME280;45368;55.002;-1.592;2023-04-01T07:12:58;99861.12;;;6.06;65.49
59545;BME280;45368;55.002;-1.592;2023-04-01T07:15:33;99861.03;;;7.20;63.84
59545;BME280;45368;55.002;-1.592;2023-04-01T07:18:05;99866.05;;;6.19;65.04
59545;BME280;45368;55.002;-1.592;2023-04-01T07:20:37;99869.31;;;5.75;65.33
59545;BME280;45368;55.002;-1.592;2023-04-01T07:23:10;99870.86;;;6.57;64.42
59545;BME280;45368;55.002;-1.592;2023-04-01T07:25:44;99872.46;;;6.84;63.36
59545;BME280;45368;55.002;-1.592;2023-04-01T07:28:15;99882.75;;;6.21;65.16
59545;BME280;45368;55.002;-1.592;2023-04-01T07:30:52;99883.09;;;5.06;66.66
59545;BME280;45368;55.002;-1.592;2023-04-01T07:33:29;99885.10;;;5.23;67.01
59545;BME280;45368;55.002;-1.592;2023-04-01T07:36:05;99898.04;;;3.95;69.64
59545;BME280;45368;55.002;-1.592;2023-04-01T07:38:43;99888.45;;;5.36;66.89
59545;BME280;45368;55.002;-1.592;2023-04-01T07:41:21;99893.57;;;5.13;66.98
59545;BME280;45368;55.002;-1.592;2023-04-01T07:43:57;99889.88;;;6.44;64.29
59545;BME280;45368;55.002;-1.592;2023-04-01T07:46:51;99893.05;;;7.21;61.76
59545;BME280;45368;55.002;-1.592;2023-04-01T07:49:25;99896.66;;;6.17;63.68
59545;BME280;45368;55.002;-1.592;2023-04-01T07:52:01;99903.41;;;6.09;65.10
59545;BME280;45368;55.002;-1.592;2023-04-01T07:54:37;99910.10;;;5.17;66.39
59545;BME280;45368;55.002;-1.592;2023-04-01T07:57:10;99913.92;;;5.51;66.46
59545;BME280;45368;55.002;-1.592;2023-04-01T07:59:47;99922.57;;;4.53;68.71
59545;BME280;45368;55.002;-1.592;2023-04-01T08:02:27;99921.04;;;5.22;67.59
59545;BME280;45368;55.002;-1.592;2023-04-01T08:05:04;99926.17;;;5.01;68.02
59545;BME280;45368;55.002;-1.592;2023-04-01T08:07:39;99932.15;;;5.27;67.57
59545;BME280;45368;55.002;-1.592;2023-04-01T08:10:14;99936.54;;;4.93;68.26
59545;BME280;45368;55.002;-1.592;2023-04-01T08:12:55;99939.96;;;4.37;69.92
59545;BME280;45368;55.002;-1.592;2023-04-01T08:15:28;99944.31;;;4.93;67.77
59545;BME280;45368;55.002;-1.592;2023-04-01T08:18:06;99949.02;;;5.76;65.89
59545;BME280;45368;55.002;-1.592;2023-04-01T08:20:43;99951.25;;;6.36;64.22
59545;BME280;45368;55.002;-1.592;2023-04-01T08:23:15;99956.22;;;6.13;64.82
59545;BME280;45368;55.002;-1.592;2023-04-01T08:25:50;99965.20;;;5.11;67.78
59545;BME280;45368;55.002;-1.592;2023-04-01T08:28:25;99973.89;;;4.83;68.49
59545;BME280;45368;55.002;-1.592;2023-04-01T08:30:58;99969.46;;;4.90;68.73
59545;BME280;45368;55.002;-1.592;2023-04-01T08:33:29;99978.48;;;4.34;70.95
59545;BME280;45368;55.002;-1.592;2023-04-01T08:36:02;99974.59;;;5.56;68.39
59545;BME280;45368;55.002;-1.592;2023-04-01T08:38:34;99971.15;;;6.35;65.33
59545;BME280;45368;55.002;-1.592;2023-04-01T08:41:21;99977.82;;;6.04;66.58
59545;BME280;45368;55.002;-1.592;2023-04-01T08:44:11;99986.43;;;5.90;67.14
59545;BME280;45368;55.002;-1.592;2023-04-01T08:47:16;99992.18;;;6.18;66.43
59545;BME280;45368;55.002;-1.592;2023-04-01T08:50:01;99993.75;;;6.25;64.74
59545;BME280;45368;55.002;-1.592;2023-04-01T08:52:35;100002.90;;;5.61;66.75
59545;BME280;45368;55.002;-1.592;2023-04-01T08:55:21;100007.34;;;5.37;67.79
59545;BME280;45368;55.002;-1.592;2023-04-01T08:58:04;100013.23;;;5.82;66.58
59545;BME280;45368;55.002;-1.592;2023-04-01T09:00:38;100016.21;;;6.12;67.63
59545;BME280;45368;55.002;-1.592;2023-04-01T09:03:26;100019.07;;;5.65;66.96
59545;BME280;45368;55.002;-1.592;2023-04-01T09:08:16;100025.35;;;6.98;66.03
59545;BME280;45368;55.002;-1.592;2023-04-01T09:10:56;100035.54;;;5.41;67.84
59545;BME280;45368;55.002;-1.592;2023-04-01T09:14:27;100043.98;;;4.35;71.78
59545;BME280;45368;55.002;-1.592;2023-04-01T09:17:19;100050.13;;;4.27;72.89
59545;BME280;45368;55.002;-1.592;2023-04-01T09:20:06;100052.36;;;3.95;74.45
59545;BME280;45368;55.002;-1.592;2023-04-01T09:22:49;100055.14;;;3.61;75.35
59545;BME280;45368;55.002;-1.592;2023-04-01T09:25:26;100063.09;;;3.63;76.10
59545;BME280;45368;55.002;-1.592;2023-04-01T09:28:05;100059.15;;;5.15;72.66
59545;BME280;45368;55.002;-1.592;2023-04-01T09:31:22;100059.31;;;4.62;74.21
59545;BME280;45368;55.002;-1.592;2023-04-01T09:34:25;100062.69;;;5.68;70.58
59545;BME280;45368;55.002;-1.592;2023-04-01T09:37:09;100068.19;;;5.28;70.73
59545;BME280;45368;55.002;-1.592;2023-04-01T09:40:16;100064.08;;;6.21;68.94
59545;BME280;45368;55.002;-1.592;2023-04-01T09:42:47;100072.96;;;5.72;69.68
59545;BME280;45368;55.002;-1.592;2023-04-01T09:45:31;100074.30;;;5.29;70.93
59545;BME280;45368;55.002;-1.592;2023-04-01T09:48:09;100080.72;;;4.46;72.37
59545;BME280;45368;55.002;-1.592;2023-04-01T09:50:47;100077.13;;;5.19;70.82
59545;BME280;45368;55.002;-1.592;2023-04-01T09:53:29;100086.99;;;4.81;72.31
59545;BME280;45368;55.002;-1.592;2023-04-01T09:56:32;100096.79;;;4.57;74.48
59545;BME280;45368;55.002;-1.592;2023-04-01T09:59:31;100101.09;;;5.57;72.11
59545;BME280;45368;55.002;-1.592;2023-04-01T10:03:02;100109.96;;;4.74;73.66
59545;BME280;45368;55.002;-1.592;2023-04-01T10:07:04;100117.00;;;4.06;75.85
59545;BME280;45368;55.002;-1.592;2023-04-01T10:10:47;100119.21;;;4.73;74.79
59545;BME280;45368;55.002;-1.592;2023-04-01T10:13:39;100120.90;;;5.03;70.77
59545;BME280;45368;55.002;-1.592;2023-04-01T10:17:17;100128.96;;;4.38;73.07
59545;BME280;45368;55.002;-1.592;2023-04-01T10:20:37;100130.92;;;5.30;70.34
59545;BME280;45368;55.002;-1.592;2023-04-01T10:23:21;100140.53;;;3.26;77.02
59545;BME280;45368;55.002;-1.592;2023-04-01T10:26:08;100143.95;;;4.09;75.62
59545;BME280;45368;55.002;-1.592;2023-04-01T10:29:03;100147.26;;;5.68;72.21
59545;BME280;45368;55.002;-1.592;2023-04-01T17:05:39;100792.08;;;4.48;72.61
59545;BME280;45368;55.002;-1.592;2023-04-01T17:08:15;100797.44;;;4.51;73.11
59545;BME280;45368;55.002;-1.592;2023-04-01T17:10:50;100793.18;;;6.10;69.90
59545;BME280;45368;55.002;-1.592;2023-04-01T17:13:41;100794.06;;;7.47;65.90
59545;BME280;45368;55.002;-1.592;2023-04-01T17:16:26;100809.22;;;5.57;70.17
59545;BME280;45368;55.002;-1.592;2023-04-01T17:19:05;100817.06;;;5.28;72.92
59545;BME280;45368;55.002;-1.592;2023-04-01T17:21:51;100823.58;;;5.26;71.00
59545;BME280;45368;55.002;-1.592;2023-04-01T17:24:33;100821.62;;;5.88;69.09
59545;BME280;45368;55.002;-1.592;2023-04-01T17:27:18;100823.88;;;6.02;68.13
59545;BME280;45368;55.002;-1.592;2023-04-01T17:33:53;100833.10;;;7.36;66.23
59545;BME280;45368;55.002;-1.592;2023-04-01T17:36:33;100841.12;;;5.84;67.08
59545;BME280;45368;55.002;-1.592;2023-04-01T17:40:05;100851.67;;;5.71;68.83
59545;BME280;45368;55.002;-1.592;2023-04-01T17:42:41;100857.92;;;6.05;67.55
59545;BME280;45368;55.002;-1.592;2023-04-01T17:45:21;100863.43;;;7.12;65.31
59545;BME280;45368;55.002;-1.592;2023-04-01T17:48:00;100865.96;;;6.96;64.76
59545;BME280;45368;55.002;-1.592;2023-04-01T17:50:35;100875.47;;;5.60;67.55
59545;BME280;45368;55.002;-1.592;2023-04-01T17:53:19;100887.53;;;5.73;68.59
59545;BME280;45368;55.002;-1.592;2023-04-01T17:55:59;100887.25;;;6.00;67.42
59545;BME280;45368;55.002;-1.592;2023-04-01T17:58:34;100893.09;;;5.59;68.32
59545;BME280;45368;55.002;-1.592;2023-04-01T18:01:16;100899.50;;;4.39;70.71
59545;BME280;45368;55.002;-1.592;2023-04-01T18:04:02;100903.05;;;5.22;70.75
59545;BME280;45368;55.002;-1.592;2023-04-01T18:06:36;100914.72;;;5.29;70.05
59545;BME280;45368;55.002;-1.592;2023-04-01T18:09:19;100916.22;;;4.92;70.85
59545;BME280;45368;55.002;-1.592;2023-04-01T18:12:00;100921.21;;;5.16;70.36
59545;BME280;45368;55.002;-1.592;2023-04-01T18:14:43;100929.75;;;4.90;71.96
59545;BME280;45368;55.002;-1.592;2023-04-01T18:17:22;100931.26;;;4.89;71.34
59545;BME280;45368;55.002;-1.592;2023-04-01T18:20:02;100932.48;;;5.11;71.76
59545;BME280;45368;55.002;-1.592;2023-04-01T18:22:41;100939.18;;;4.74;71.72
59545;BME280;45368;55.002;-1.592;2023-04-01T18:25:18;100944.04;;;6.71;66.10
59545;BME280;45368;55.002;-1.592;2023-04-01T18:27:53;100952.29;;;5.87;67.85
59545;BME280;45368;55.002;-1.592;2023-04-01T18:30:26;100952.20;;;7.08;65.89
59545;BME280;45368;55.002;-1.592;2023-04-01T18:32:59;100963.15;;;5.58;68.78
59545;BME280;45368;55.002;-1.592;2023-04-01T18:35:41;100963.73;;;5.25;69.37
59545;BME280;45368;55.002;-1.592;2023-04-01T18:38:12;100969.93;;;5.86;68.11
59545;BME280;45368;55.002;-1.592;2023-04-01T18:40:45;100978.35;;;5.15;70.18
59545;BME280;45368;55.002;-1.592;2023-04-01T18:43:22;100982.12;;;5.02;70.22
59545;BME280;45368;55.002;-1.592;2023-04-01T18:45:59;100991.00;;;5.66;69.61
59545;BME280;45368;55.002;-1.592;2023-04-01T18:48:40;100995.92;;;5.31;70.50
59545;BME280;45368;55.002;-1.592;2023-04-01T18:51:16;100999.70;;;6.06;68.51
59545;BME280;45368;55.002;-1.592;2023-04-01T18:53:48;101003.13;;;6.11;67.48
59545;BME280;45368;55.002;-1.592;2023-04-01T18:56:26;101009.99;;;6.11;67.95
59545;BME280;45368;55.002;-1.592;2023-04-01T18:59:01;101015.33;;;6.45;66.66
59545;BME280;45368;55.002;-1.592;2023-04-01T19:01:37;101018.31;;;6.53;65.83
59545;BME280;45368;55.002;-1.592;2023-04-01T19:04:16;101021.47;;;5.86;68.39
59545;BME280;45368;55.002;-1.592;2023-04-01T19:06:49;101027.48;;;5.97;67.50
59545;BME280;45368;55.002;-1.592;2023-04-01T19:09:23;101032.02;;;6.47;67.41
59545;BME280;45368;55.002;-1.592;2023-04-01T19:12:12;101034.56;;;5.94;68.29
59545;BME280;45368;55.002;-1.592;2023-04-01T19:14:56;101041.84;;;6.64;65.86
59545;BME280;45368;55.002;-1.592;2023-04-01T19:17:36;101052.29;;;5.61;68.66
59545;BME280;45368;55.002;-1.592;2023-04-01T19:20:17;101053.07;;;6.27;67.06
59545;BME280;45368;55.002;-1.592;2023-04-01T19:23:06;101054.26;;;7.02;65.35
59545;BME280;45368;55.002;-1.592;2023-04-01T19:25:43;101059.07;;;6.81;64.71
59545;BME280;45368;55.002;-1.592;2023-04-01T19:28:22;101060.03;;;5.92;66.63
59545;BME280;45368;55.002;-1.592;2023-04-01T19:30:55;101065.77;;;4.99;69.88
59545;BME280;45368;55.002;-1.592;2023-04-01T19:33:32;101067.95;;;6.92;65.91
59545;BME280;45368;55.002;-1.592;2023-04-01T19:36:10;101074.44;;;6.09;67.39
59545;BME280;45368;55.002;-1.592;2023-04-01T19:38:39;101080.33;;;5.60;68.96
59545;BME280;45368;55.002;-1.592;2023-04-01T19:41:19;101084.94;;;6.12;67.48
59545;BME280;45368;55.002;-1.592;2023-04-01T19:43:58;101093.50;;;5.46;68.60
59545;BME280;45368;55.002;-1.592;2023-04-01T19:46:32;101098.46;;;5.30;70.06
59545;BME280;45368;55.002;-1.592;2023-04-01T19:49:16;101106.09;;;4.65;73.54
59545;BME280;45368;55.002;-1.592;2023-04-01T19:51:51;101109.68;;;5.46;71.14
59545;BME280;45368;55.002;-1.592;2023-04-01T19:54:31;101115.29;;;5.08;72.86
59545;BME280;45368;55.002;-1.592;2023-04-01T19:57:10;101119.44;;;5.04;73.13
59545;BME280;45368;55.002;-1.592;2023-04-01T19:59:47;101124.48;;;4.71;74.87
59545;BME280;45368;55.002;-1.592;2023-04-01T20:02:34;101132.93;;;4.52;74.53
59545;BME280;45368;55.002;-1.592;2023-04-01T20:05:19;101132.85;;;4.91;73.79
59545;BME280;45368;55.002;-1.592;2023-04-01T20:07:53;101140.40;;;5.15;72.51
59545;BME280;45368;55.002;-1.592;2023-04-01T20:10:30;101144.95;;;5.14;72.07
59545;BME280;45368;55.002;-1.592;2023-04-01T20:13:03;101148.49;;;5.20;72.08
59545;BME280;45368;55.002;-1.592;2023-04-01T20:15:35;101154.11;;;5.21;72.66
59545;BME280;45368;55.002;-1.592;2023-04-01T20:18:11;101163.45;;;4.58;74.97
59545;BME280;45368;55.002;-1.592;2023-04-01T20:20:40;101165.93;;;5.33;72.66
59545;BME280;45368;55.002;-1.592;2023-04-01T20:23:43;101168.84;;;5.65;70.86